Time;durP1;ratioP1;P1;durP2;ratioP2;P2;SDS_P1;SDS_P2;PMS_P1;PMS_P2;Temp;Humidity;BMP_temperature;BMP_pressure;BME280_temperature;BME280_humidity;BME280_pressure;Samples;Min_cycle;Max_cycle;Signal;HPM_P1;HPM_P2
2023/06/05 00:00:36;;;;;;;5.15;2.60;;;;;17.30;96518.00;;;;8313172;28;20272;-72
2023/06/05 00:04:40;;;;;;;8.38;2.45;;;;;17.30;96515.00;;;;8309931;28;20257;-71
2023/06/05 00:08:46;;;;;;;3.50;2.22;;;;;17.30;96501.00;;;;8312700;28;20758;-71
2023/06/05 00:12:49;;;;;;;3.42;2.33;;;;;17.20;96498.00;;;;8309836;28;20317;-71
2023/06/05 00:16:57;;;;;;;2.53;2.30;;;;;17.10;96496.00;;;;8307547;28;20190;-72
2023/06/05 00:21:00;;;;;;;2.50;2.30;;;;;17.10;96489.00;;;;8308795;28;20230;-72
2023/06/05 00:25:09;;;;;;;5.72;2.03;;;;;17.00;96489.00;;;;8311155;28;20216;-72
2023/06/05 00:29:12;;;;;;;2.42;2.20;;;;;17.00;96502.00;;;;8303031;28;20846;-71
2023/06/05 00:33:15;;;;;;;4.88;2.97;;;;;16.90;96507.00;;;;8311222;28;20231;-71
2023/06/05 00:37:19;;;;;;;2.33;1.90;;;;;16.80;96503.00;;;;8310033;28;20758;-71
2023/06/05 00:41:24;;;;;;;2.80;2.33;;;;;16.70;96506.00;;;;8299963;28;20349;-72
2023/06/05 00:45:27;;;;;;;5.10;2.13;;;;;16.60;96500.00;;;;8304160;28;20202;-71
2023/06/05 00:49:31;;;;;;;4.82;2.20;;;;;16.50;96503.00;;;;8310091;28;20205;-71
2023/06/05 00:53:36;;;;;;;5.10;2.28;;;;;16.40;96497.00;;;;8303711;28;20311;-71
2023/06/05 00:57:44;;;;;;;5.25;2.40;;;;;16.40;96491.00;;;;8309323;28;20217;-71
2023/06/05 01:01:47;;;;;;;2.45;2.25;;;;;16.30;96485.00;;;;8305519;28;20588;-71
2023/06/05 01:05:51;;;;;;;2.25;1.98;;;;;16.20;96485.00;;;;8297460;28;20267;-72
2023/06/05 01:09:57;;;;;;;2.10;2.00;;;;;16.20;96487.00;;;;8291336;28;20209;-71
2023/06/05 01:14:12;;;;;;;2.63;2.40;;;;;16.20;96485.00;;;;8314084;28;20554;-71
2023/06/05 01:18:22;;;;;;;4.70;2.10;;;;;16.20;96487.00;;;;8312723;28;20260;-71
2023/06/05 01:22:26;;;;;;;2.13;1.92;;;;;16.10;96479.00;;;;8315083;28;20617;-71
2023/06/05 01:26:37;;;;;;;4.20;2.20;;;;;16.00;96486.00;;;;8312483;28;20208;-69
2023/06/05 01:30:52;;;;;;;4.65;2.65;;;;;16.00;96488.00;;;;8308267;28;20300;-71
2023/06/05 01:34:58;;;;;;;3.17;1.95;;;;;16.00;96484.00;;;;8308425;28;20229;-71
2023/06/05 01:39:05;;;;;;;5.38;2.20;;;;;16.00;96470.00;;;;8311653;28;20233;-71
2023/06/05 01:43:12;;;;;;;3.08;2.20;;;;;15.90;96484.00;;;;8313511;28;20203;-71
2023/06/05 01:47:15;;;;;;;2.95;2.25;;;;;15.90;96469.00;;;;8313375;28;20206;-72
2023/06/05 01:51:20;;;;;;;3.28;2.13;;;;;16.00;96475.00;;;;8313968;28;20209;-73
2023/06/05 01:55:26;;;;;;;5.97;2.55;;;;;15.90;96467.00;;;;8311992;28;20201;-71
2023/06/05 01:59:33;;;;;;;2.33;2.03;;;;;15.90;96471.00;;;;8312581;28;20261;-72
2023/06/05 02:03:47;;;;;;;4.10;2.45;;;;;15.80;96463.00;;;;8308584;28;20229;-72
2023/06/05 02:07:53;;;;;;;3.13;2.40;;;;;15.80;96451.00;;;;8306605;28;20238;-72
2023/06/05 02:11:58;;;;;;;3.15;2.30;;;;;15.80;96458.00;;;;8298559;28;20248;-71
2023/06/05 02:16:02;;;;;;;2.50;2.17;;;;;15.70;96442.00;;;;8310484;28;20439;-72
2023/06/05 02:20:07;;;;;;;2.47;1.98;;;;;15.70;96439.00;;;;8313361;28;20232;-72
2023/06/05 02:24:13;;;;;;;3.35;2.75;;;;;15.70;96444.00;;;;8315120;28;20227;-72
2023/06/05 02:28:16;;;;;;;6.25;2.50;;;;;15.60;96441.00;;;;8311657;28;20208;-72
2023/06/05 02:32:26;;;;;;;2.45;2.15;;;;;15.60;96439.00;;;;8316100;28;20234;-72
2023/06/05 02:36:32;;;;;;;5.18;2.10;;;;;15.50;96447.00;;;;8314452;28;20526;-72
2023/06/05 02:40:36;;;;;;;4.15;2.50;;;;;15.50;96442.00;;;;8315160;28;20228;-72
2023/06/05 02:44:39;;;;;;;6.65;2.50;;;;;15.40;96441.00;;;;8314570;28;20283;-71
2023/06/05 02:48:44;;;;;;;2.60;2.22;;;;;15.30;96442.00;;;;8314284;28;20225;-72
2023/06/05 02:52:50;;;;;;;8.18;2.40;;;;;15.30;96442.00;;;;8313265;28;20189;-71
2023/06/05 02:56:54;;;;;;;2.50;2.30;;;;;15.20;96443.00;;;;8312721;28;20734;-72
2023/06/05 03:05:12;;;;;;;5.57;2.30;;;;;15.00;96425.00;;;;8336586;26;20224;-72
2023/06/05 03:09:15;;;;;;;4.80;2.35;;;;;14.90;96429.00;;;;8345303;28;20294;-71
2023/06/05 03:13:19;;;;;;;5.38;2.30;;;;;14.80;96428.00;;;;8340821;28;20301;-71
2023/06/05 03:17:24;;;;;;;3.58;2.10;;;;;14.80;96432.00;;;;8340849;28;20199;-71
2023/06/05 03:21:28;;;;;;;2.70;2.50;;;;;14.70;96433.00;;;;8345598;28;20256;-72
2023/06/05 03:25:32;;;;;;;4.60;2.40;;;;;14.60;96438.00;;;;8322910;28;20212;-70
2023/06/05 03:29:35;;;;;;;2.30;2.10;;;;;14.60;96433.00;;;;8337504;28;20194;-71
2023/06/05 03:33:43;;;;;;;4.45;2.60;;;;;14.60;96439.00;;;;8337821;28;20250;-69
2023/06/05 03:37:48;;;;;;;3.45;2.28;;;;;14.60;96438.00;;;;8343590;28;20886;-69
2023/06/05 03:41:51;;;;;;;4.57;2.53;;;;;14.60;96432.00;;;;8346638;28;20228;-70
2023/06/05 03:46:00;;;;;;;3.22;2.58;;;;;14.70;96433.00;;;;8344339;28;20208;-71
2023/06/05 03:50:03;;;;;;;3.50;2.75;;;;;14.80;96440.00;;;;8332481;28;20203;-71
2023/06/05 03:54:12;;;;;;;5.15;2.58;;;;;14.80;96443.00;;;;8342149;28;20281;-71
2023/06/05 03:58:20;;;;;;;2.72;2.47;;;;;14.90;96442.00;;;;8339591;28;20209;-70
2023/06/05 04:02:24;;;;;;;2.33;2.15;;;;;14.90;96444.00;;;;8324524;28;20245;-71
2023/06/05 04:06:27;;;;;;;3.40;2.35;;;;;15.00;96447.00;;;;8303387;28;20230;-70
2023/06/05 04:10:31;;;;;;;11.13;2.80;;;;;15.10;96446.00;;;;8309645;28;20197;-72
2023/06/05 04:14:35;;;;;;;3.53;2.53;;;;;15.10;96459.00;;;;8314200;28;20295;-71
2023/06/05 04:18:41;;;;;;;4.00;2.60;;;;;15.20;96464.00;;;;8309366;28;20194;-72
2023/06/05 04:22:45;;;;;;;6.60;2.35;;;;;15.20;96458.00;;;;8302081;28;20610;-73
2023/06/05 04:26:54;;;;;;;7.03;2.75;;;;;15.40;96468.00;;;;8306679;28;22787;-73
2023/06/05 04:31:01;;;;;;;3.72;2.65;;;;;15.50;96465.00;;;;8306763;28;20201;-73
2023/06/05 04:35:06;;;;;;;4.43;2.58;;;;;15.60;96461.00;;;;8309625;28;20562;-72
2023/06/05 04:39:15;;;;;;;4.53;2.75;;;;;15.70;96452.00;;;;8309662;28;20729;-69
2023/06/05 04:43:22;;;;;;;3.42;2.67;;;;;16.10;96453.00;;;;8305255;28;20256;-73
2023/06/05 04:47:28;;;;;;;5.28;2.55;;;;;16.60;96461.00;;;;8301755;28;21770;-73
2023/06/05 04:51:33;;;;;;;3.63;2.45;;;;;17.10;96454.00;;;;8292171;28;21081;-75
2023/06/05 04:55:39;;;;;;;9.45;2.63;;;;;17.10;96441.00;;;;8316886;28;20683;-75
2023/06/05 04:59:44;;;;;;;3.38;2.45;;;;;17.30;96445.00;;;;8307297;28;20292;-74
2023/06/05 05:03:48;;;;;;;4.95;2.85;;;;;17.50;96434.00;;;;8312597;28;20305;-75
2023/06/05 05:07:53;;;;;;;3.00;2.70;;;;;17.80;96441.00;;;;8314160;28;20221;-74
2023/06/05 05:12:04;;;;;;;6.15;2.55;;;;;18.10;96443.00;;;;8308494;28;20247;-74
2023/06/05 05:16:10;;;;;;;4.05;2.75;;;;;18.20;96449.00;;;;8312108;28;20198;-74
2023/06/05 05:20:16;;;;;;;5.93;2.58;;;;;18.40;96446.00;;;;8309678;28;20224;-74
2023/06/05 05:24:22;;;;;;;6.05;2.40;;;;;18.60;96443.00;;;;8311211;28;20209;-73
2023/06/05 05:28:29;;;;;;;3.90;2.65;;;;;18.60;96451.00;;;;8309280;28;20209;-73
2023/06/05 05:32:34;;;;;;;7.60;2.88;;;;;18.50;96445.00;;;;8309249;28;20288;-74
2023/06/05 05:36:38;;;;;;;5.35;2.75;;;;;18.30;96452.00;;;;8285447;28;20237;-74
2023/06/05 05:40:41;;;;;;;4.00;2.67;;;;;18.30;96456.00;;;;8310497;28;20260;-73
2023/06/05 05:44:45;;;;;;;7.75;3.47;;;;;18.50;96456.00;;;;8305424;28;20304;-74
2023/06/05 05:48:49;;;;;;;9.25;3.33;;;;;19.00;96462.00;;;;8304444;28;20194;-74
2023/06/05 05:52:53;;;;;;;6.32;3.63;;;;;19.40;96461.00;;;;8312048;28;20931;-74
2023/06/05 05:56:59;;;;;;;3.45;3.08;;;;;19.80;96453.00;;;;8301741;28;20229;-73
2023/06/05 06:01:02;;;;;;;3.78;3.20;;;;;20.20;96468.00;;;;8302919;28;20229;-73
2023/06/05 06:05:07;;;;;;;7.55;3.50;;;;;20.60;96463.00;;;;8308083;28;20746;-74
2023/06/05 06:09:13;;;;;;;9.50;3.22;;;;;20.80;96462.00;;;;8308267;28;20253;-74
2023/06/05 06:13:19;;;;;;;6.55;3.78;;;;;20.30;96463.00;;;;8306363;28;20201;-73
2023/06/05 06:17:27;;;;;;;5.07;3.60;;;;;19.80;96458.00;;;;8311559;28;20301;-74
2023/06/05 06:21:34;;;;;;;8.90;3.50;;;;;19.60;96451.00;;;;8304907;28;20233;-72
2023/06/05 06:25:39;;;;;;;3.95;3.17;;;;;19.50;96455.00;;;;8297773;28;20206;-73
2023/06/05 06:29:49;;;;;;;8.85;3.63;;;;;19.40;96455.00;;;;8306965;28;20200;-73
2023/06/05 06:33:54;;;;;;;6.88;3.80;;;;;19.70;96457.00;;;;8287848;28;20245;-74
2023/06/05 06:38:03;;;;;;;8.00;3.40;;;;;19.90;96465.00;;;;8318457;28;20240;-74
2023/06/05 06:42:06;;;;;;;7.82;3.58;;;;;19.80;96458.00;;;;8310073;28;20317;-73
2023/06/05 06:46:17;;;;;;;5.57;3.72;;;;;19.80;96458.00;;;;8320187;28;20243;-73
2023/06/05 06:50:22;;;;;;;7.07;3.60;;;;;19.90;96469.00;;;;8302345;28;20290;-73
2023/06/05 06:54:28;;;;;;;5.75;3.30;;;;;20.50;96468.00;;;;8319279;28;20325;-73
2023/06/05 06:58:31;;;;;;;7.13;3.42;;;;;21.40;96467.00;;;;8312866;28;20213;-76
2023/06/05 07:02:40;;;;;;;6.40;3.47;;;;;22.30;96467.00;;;;8311958;28;20677;-76
2023/06/05 07:06:44;;;;;;;8.07;4.15;;;;;22.70;96462.00;;;;8304134;28;20218;-75
2023/06/05 07:10:54;;;;;;;7.00;3.88;;;;;23.30;96464.00;;;;8314509;28;20228;-77
2023/06/05 07:14:57;;;;;;;9.60;4.13;;;;;23.70;96459.00;;;;8300249;28;20309;-77
2023/06/05 07:19:05;;;;;;;5.78;3.90;;;;;24.40;96464.00;;;;8315498;28;20309;-76
2023/06/05 07:23:08;;;;;;;13.13;4.25;;;;;24.80;96469.00;;;;8312210;28;20608;-76
2023/06/05 07:27:17;;;;;;;10.20;4.68;;;;;24.40;96460.00;;;;8314850;28;20233;-76
2023/06/05 07:31:24;;;;;;;4.25;3.50;;;;;24.30;96472.00;;;;8311784;28;20208;-76
2023/06/05 07:35:30;;;;;;;10.13;4.00;;;;;23.90;96470.00;;;;8313743;28;20190;-76
2023/06/05 07:39:40;;;;;;;7.68;4.13;;;;;23.30;96471.00;;;;8318149;28;20197;-76
2023/06/05 07:43:45;;;;;;;7.68;4.38;;;;;23.30;96470.00;;;;8306268;28;20685;-76
2023/06/05 07:47:48;;;;;;;8.95;3.97;;;;;23.10;96468.00;;;;8313368;28;20965;-77
2023/06/05 07:51:51;;;;;;;8.55;4.13;;;;;24.10;96463.00;;;;8312765;28;20886;-77
2023/06/05 07:55:56;;;;;;;6.30;4.15;;;;;24.90;96459.00;;;;8311289;28;20194;-77
2023/06/05 08:00:09;;;;;;;5.60;4.15;;;;;25.20;96463.00;;;;8315119;28;20698;-76
2023/06/05 08:04:13;;;;;;;13.68;5.30;;;;;24.40;96459.00;;;;8302213;28;20997;-76
2023/06/05 08:08:17;;;;;;;6.20;4.85;;;;;24.40;96457.00;;;;8314665;28;20248;-76
2023/06/05 08:12:20;;;;;;;5.97;4.50;;;;;25.00;96449.00;;;;8312569;28;20809;-76
2023/06/05 08:16:26;;;;;;;6.68;4.30;;;;;24.90;96447.00;;;;8311069;28;20300;-76
2023/06/05 08:20:29;;;;;;;7.18;4.30;;;;;24.50;96452.00;;;;8312112;28;20250;-76
2023/06/05 08:24:32;;;;;;;9.70;4.55;;;;;24.40;96448.00;;;;8315464;28;20225;-76
2023/06/05 08:28:36;;;;;;;7.90;4.47;;;;;25.70;96454.00;;;;8311976;28;20226;-77
2023/06/05 08:32:41;;;;;;;11.13;4.78;;;;;27.20;96452.00;;;;8302844;28;20658;-78
2023/06/05 08:36:44;;;;;;;5.63;4.60;;;;;27.30;96455.00;;;;8300838;28;20198;-77
2023/06/05 08:40:54;;;;;;;8.65;5.03;;;;;28.60;96457.00;;;;8304135;28;20194;-78
2023/06/05 08:44:57;;;;;;;9.18;5.55;;;;;30.10;96447.00;;;;8308151;28;20290;-77
2023/06/05 08:49:11;;;;;;;7.60;4.85;;;;;29.80;96450.00;;;;8305355;28;20208;-76
2023/06/05 08:53:17;;;;;;;8.85;4.80;;;;;28.90;96443.00;;;;8313593;28;20308;-77
2023/06/05 08:57:23;;;;;;;9.32;4.85;;;;;28.40;96443.00;;;;8306423;28;20567;-77
2023/06/05 09:01:32;;;;;;;7.82;4.57;;;;;28.80;96441.00;;;;8305705;28;20229;-75
2023/06/05 09:05:36;;;;;;;5.90;4.55;;;;;29.50;96440.00;;;;8308667;28;20202;-76
2023/06/05 09:09:39;;;;;;;4.80;4.28;;;;;29.60;96448.00;;;;8314751;28;20288;-77
2023/06/05 09:13:46;;;;;;;7.90;4.47;;;;;28.80;96448.00;;;;8307194;28;20281;-75
2023/06/05 09:17:51;;;;;;;5.88;4.30;;;;;28.40;96441.00;;;;8302349;28;20308;-77
2023/06/05 09:21:56;;;;;;;7.13;4.10;;;;;28.60;96443.00;;;;8308612;28;20225;-77
2023/06/05 09:26:10;;;;;;;4.90;4.40;;;;;28.20;96438.00;;;;8306746;28;20213;-77
2023/06/05 09:30:14;;;;;;;4.75;4.32;;;;;27.90;96444.00;;;;8300184;28;20285;-75
2023/06/05 09:34:27;;;;;;;4.65;4.10;;;;;28.40;96447.00;;;;8306868;28;20228;-78
2023/06/05 09:38:32;;;;;;;8.43;4.20;;;;;28.40;96439.00;;;;8304618;28;20209;-76
2023/06/05 09:42:36;;;;;;;4.32;3.90;;;;;27.50;96431.00;;;;8311758;28;20574;-76
2023/06/05 09:46:52;;;;;;;7.45;4.57;;;;;27.40;96433.00;;;;8298349;28;20206;-71
2023/06/05 09:51:09;;;;;;;4.72;4.32;;;;;27.50;96429.00;;;;8312426;28;20698;-72
2023/06/05 09:55:17;;;;;;;7.28;3.90;;;;;28.60;96428.00;;;;8306048;28;20209;-72
2023/06/05 09:59:22;;;;;;;5.57;4.47;;;;;29.20;96432.00;;;;8292292;28;21910;-72
2023/06/05 10:03:27;;;;;;;4.53;3.88;;;;;29.00;96431.00;;;;8294087;28;20304;-72
2023/06/05 10:07:31;;;;;;;4.53;3.70;;;;;29.70;96429.00;;;;8305492;28;21041;-74
2023/06/05 10:11:36;;;;;;;5.63;4.30;;;;;30.30;96431.00;;;;8301414;28;20204;-74
2023/06/05 10:15:46;;;;;;;4.57;3.90;;;;;29.90;96427.00;;;;8307399;28;20198;-74
2023/06/05 10:19:55;;;;;;;5.47;4.53;;;;;29.60;96424.00;;;;8300222;28;21195;-74
2023/06/05 10:24:02;;;;;;;9.45;3.97;;;;;28.70;96424.00;;;;8302540;28;20336;-74
2023/06/05 10:28:24;;;;;;;5.18;3.80;;;;;28.50;96422.00;;;;8301626;28;20228;-74
2023/06/05 10:32:40;;;;;;;5.72;3.30;;;;;30.40;96421.00;;;;8297007;28;20256;-74
2023/06/05 10:37:07;;;;;;;5.45;3.65;;;;;30.50;96427.00;;;;8290138;28;20697;-74
2023/06/05 10:41:11;;;;;;;5.63;3.55;;;;;29.50;96424.00;;;;8307565;28;20256;-74
2023/06/05 10:45:30;;;;;;;5.13;3.58;;;;;29.40;96427.00;;;;8305258;28;20251;-73
2023/06/05 10:49:34;;;;;;;4.82;3.47;;;;;29.50;96430.00;;;;8306254;28;20194;-74
2023/06/05 10:53:56;;;;;;;5.07;3.42;;;;;29.60;96422.00;;;;8307540;28;21626;-75
2023/06/05 10:58:14;;;;;;;9.93;3.88;;;;;30.00;96418.00;;;;8309208;28;20331;-73
2023/06/05 11:02:28;;;;;;;4.90;3.53;;;;;29.90;96414.00;;;;8308670;28;20269;-73
2023/06/05 11:06:31;;;;;;;3.88;3.40;;;;;30.30;96418.00;;;;8279452;28;20198;-73
2023/06/05 11:10:39;;;;;;;3.63;3.25;;;;;30.40;96416.00;;;;8304319;28;20194;-73
2023/06/05 11:14:51;;;;;;;5.32;3.42;;;;;31.90;96413.00;;;;8301926;28;20201;-74
2023/06/05 11:19:40;;;;;;;4.07;2.97;;;;;31.90;96416.00;;;;8307457;28;20659;-73
2023/06/05 11:24:17;;;;;;;5.47;3.72;;;;;32.40;96404.00;;;;8209554;28;20245;-74
2023/06/05 11:28:38;;;;;;;6.20;2.90;;;;;32.30;96405.00;;;;8275805;28;20292;-73
2023/06/05 11:32:42;;;;;;;3.08;2.88;;;;;31.40;96410.00;;;;8311991;28;20256;-74
2023/06/05 11:36:51;;;;;;;3.35;2.67;;;;;31.60;96402.00;;;;8313463;28;20851;-73
2023/06/05 11:40:57;;;;;;;2.78;2.58;;;;;31.30;96402.00;;;;8301710;28;20316;-74
2023/06/05 11:45:02;;;;;;;3.53;3.15;;;;;30.30;96403.00;;;;8298901;28;20273;-75
2023/06/05 11:49:06;;;;;;;7.45;3.45;;;;;30.20;96393.00;;;;8288918;28;20194;-74
2023/06/05 11:53:12;;;;;;;3.50;3.20;;;;;29.60;96394.00;;;;8299498;28;20209;-75
2023/06/05 11:57:17;;;;;;;3.50;3.20;;;;;28.80;96390.00;;;;8304588;28;20225;-74
2023/06/05 12:01:22;;;;;;;3.28;3.05;;;;;28.10;96389.00;;;;8316418;28;20194;-74
2023/06/05 12:05:31;;;;;;;39.30;4.70;;;;;28.40;96384.00;;;;8310222;28;20244;-74
2023/06/05 12:09:40;;;;;;;4.45;3.40;;;;;27.60;96393.00;;;;8302949;28;20285;-75
2023/06/05 12:13:47;;;;;;;6.20;3.65;;;;;26.80;96389.00;;;;8308172;28;20245;-74
2023/06/05 12:17:56;;;;;;;4.63;3.80;;;;;26.30;96380.00;;;;8308099;28;20210;-75
2023/06/05 12:22:07;;;;;;;6.13;3.80;;;;;26.60;96378.00;;;;8309292;28;20198;-74
2023/06/05 12:26:16;;;;;;;4.20;3.45;;;;;27.00;96374.00;;;;8313499;28;20250;-74
2023/06/05 12:30:20;;;;;;;6.28;3.70;;;;;26.30;96384.00;;;;8309033;28;20240;-74
2023/06/05 12:34:44;;;;;;;5.30;3.97;;;;;25.50;96386.00;;;;8310492;28;20225;-75
2023/06/05 12:38:50;;;;;;;5.18;3.83;;;;;25.10;96384.00;;;;8313461;28;20717;-74
2023/06/05 12:42:56;;;;;;;5.03;3.05;;;;;24.90;96378.00;;;;8314400;28;20236;-75
2023/06/05 12:47:00;;;;;;;10.23;3.53;;;;;24.90;96373.00;;;;8311453;28;20288;-75
2023/06/05 12:51:05;;;;;;;7.05;2.85;;;;;25.10;96373.00;;;;8315897;28;20913;-75
2023/06/05 12:55:11;;;;;;;3.25;2.78;;;;;25.50;96376.00;;;;8305830;28;20202;-75
2023/06/05 12:59:16;;;;;;;3.88;3.22;;;;;25.40;96369.00;;;;8307629;28;20212;-75
2023/06/05 13:03:23;;;;;;;3.78;2.88;;;;;25.00;96371.00;;;;8300397;28;20316;-75
2023/06/05 13:07:32;;;;;;;4.03;3.10;;;;;24.80;96364.00;;;;8307899;28;20255;-75
2023/06/05 13:11:36;;;;;;;3.83;3.50;;;;;25.00;96368.00;;;;8315875;28;20197;-77
2023/06/05 13:15:48;;;;;;;3.08;2.88;;;;;26.60;96356.00;;;;8316311;28;20236;-77
2023/06/05 13:19:52;;;;;;;3.13;2.83;;;;;27.90;96374.00;;;;8316073;28;20207;-76
2023/06/05 13:23:55;;;;;;;3.58;3.10;;;;;27.60;96363.00;;;;8314580;28;20229;-76
2023/06/05 13:27:58;;;;;;;2.85;2.70;;;;;28.10;96366.00;;;;8314342;28;20221;-76
2023/06/05 13:32:06;;;;;;;2.60;2.40;;;;;28.60;96372.00;;;;8310358;28;20296;-76
2023/06/05 13:36:10;;;;;;;6.53;2.58;;;;;29.00;96368.00;;;;8314108;28;20738;-76
2023/06/05 13:40:15;;;;;;;24.13;3.40;;;;;29.10;96382.00;;;;8309229;28;20197;-73
2023/06/05 13:44:25;;;;;;;3.28;2.60;;;;;28.80;96389.00;;;;8313319;28;21829;-76
2023/06/05 13:48:30;;;;;;;3.38;2.25;;;;;29.10;96378.00;;;;8294778;28;20243;-76
2023/06/05 13:52:36;;;;;;;5.97;2.40;;;;;29.30;96379.00;;;;8297173;28;20639;-77
2023/06/05 13:56:43;;;;;;;2.92;2.67;;;;;28.50;96379.00;;;;8315443;28;20204;-76
2023/06/05 14:00:48;;;;;;;2.00;1.90;;;;;27.80;96383.00;;;;8313848;28;20217;-78
2023/06/05 14:04:53;;;;;;;3.33;2.10;;;;;27.70;96384.00;;;;8311362;28;20254;-75
2023/06/05 14:08:57;;;;;;;1.90;1.80;;;;;27.60;96389.00;;;;8312159;28;20652;-76
2023/06/05 14:13:00;;;;;;;4.35;1.92;;;;;27.90;96384.00;;;;8310183;28;20206;-76
2023/06/05 14:17:04;;;;;;;6.00;2.10;;;;;28.00;96386.00;;;;8308445;28;20599;-76
2023/06/05 14:21:12;;;;;;;1.90;1.80;;;;;27.80;96390.00;;;;8290468;28;20197;-77
2023/06/05 14:25:16;;;;;;;4.80;1.90;;;;;27.60;96385.00;;;;8308534;28;20229;-77
2023/06/05 14:29:22;;;;;;;3.80;1.30;;;;;27.60;96383.00;;;;8306704;28;20281;-76
2023/06/05 14:33:26;;;;;;;1.15;1.15;;;;;28.00;96386.00;;;;8302350;28;20213;-75
2023/06/05 14:37:31;;;;;;;2.15;1.50;;;;;28.10;96382.00;;;;8308665;28;20200;-76
2023/06/05 14:41:34;;;;;;;3.50;1.42;;;;;28.20;96382.00;;;;8305758;28;20297;-75
2023/06/05 14:45:40;;;;;;;4.07;1.77;;;;;28.20;96377.00;;;;8299071;28;21172;-76
2023/06/05 14:49:44;;;;;;;3.35;1.52;;;;;27.70;96367.00;;;;8308411;28;20201;-75
2023/06/05 14:53:51;;;;;;;2.28;2.13;;;;;27.70;96377.00;;;;8301765;28;20202;-77
2023/06/05 14:57:57;;;;;;;2.20;2.10;;;;;27.90;96369.00;;;;8307097;28;20289;-76
2023/06/05 15:02:10;;;;;;;2.60;2.13;;;;;28.10;96387.00;;;;8316870;28;20755;-78
2023/06/05 15:06:20;;;;;;;11.32;2.97;;;;;27.50;96405.00;;;;8313800;28;20253;-76
2023/06/05 15:10:28;;;;;;;2.83;2.50;;;;;27.20;96387.00;;;;8312527;28;20201;-75
2023/06/05 15:14:33;;;;;;;2.20;2.05;;;;;27.40;96383.00;;;;8312323;28;20288;-78
2023/06/05 15:18:39;;;;;;;2.00;1.90;;;;;27.70;96389.00;;;;8307103;28;20351;-76
2023/06/05 15:22:43;;;;;;;3.83;2.55;;;;;27.80;96383.00;;;;8296858;28;20780;-73
2023/06/05 15:26:49;;;;;;;2.80;2.60;;;;;27.80;96386.00;;;;8302790;28;20253;-78
2023/06/05 15:30:54;;;;;;;2.92;2.72;;;;;28.20;96392.00;;;;8315950;28;20281;-76
2023/06/05 15:34:58;;;;;;;3.13;2.88;;;;;28.30;96385.00;;;;8318358;28;20232;-77
2023/06/05 15:39:04;;;;;;;3.28;2.67;;;;;28.10;96389.00;;;;8310367;28;20201;-75
2023/06/05 15:43:11;;;;;;;3.17;2.88;;;;;27.80;96395.00;;;;8319613;28;20663;-79
2023/06/05 15:47:16;;;;;;;3.25;3.03;;;;;27.90;96389.00;;;;8320529;28;20233;-74
2023/06/05 15:51:20;;;;;;;2.90;2.70;;;;;27.80;96392.00;;;;8317863;28;20200;-80
2023/06/05 15:55:24;;;;;;;3.03;2.78;;;;;27.40;96391.00;;;;8314402;28;20206;-77
2023/06/05 15:59:30;;;;;;;2.80;2.60;;;;;27.00;96397.00;;;;8310650;28;20379;-76
2023/06/05 16:03:35;;;;;;;3.20;2.97;;;;;26.90;96389.00;;;;8295517;28;20303;-75
2023/06/05 16:07:39;;;;;;;2.50;2.30;;;;;27.20;96393.00;;;;8313268;28;20288;-79
2023/06/05 16:11:42;;;;;;;3.13;2.35;;;;;27.00;96390.00;;;;8306865;28;20205;-78
2023/06/05 16:15:51;;;;;;;2.22;2.13;;;;;26.90;96385.00;;;;8307411;28;20211;-77
2023/06/05 16:19:57;;;;;;;2.22;2.13;;;;;26.80;96392.00;;;;8308496;28;20292;-79
2023/06/05 16:24:01;;;;;;;2.20;2.10;;;;;26.80;96383.00;;;;8305076;28;20610;-79
2023/06/05 16:28:05;;;;;;;2.60;2.10;;;;;26.70;96383.00;;;;8310663;28;20253;-79
2023/06/05 16:32:09;;;;;;;2.38;2.17;;;;;26.70;96379.00;;;;8315156;28;20565;-76
2023/06/05 16:36:14;;;;;;;2.63;2.00;;;;;27.10;96372.00;;;;8317193;28;20198;-78
2023/06/05 16:40:22;;;;;;;3.38;2.17;;;;;27.40;96369.00;;;;8315098;28;20292;-76
2023/06/05 16:44:25;;;;;;;2.17;2.08;;;;;27.40;96381.00;;;;8313756;28;20261;-79
2023/06/05 16:48:35;;;;;;;1.95;1.88;;;;;27.50;96377.00;;;;8299102;28;20570;-77
2023/06/05 16:52:41;;;;;;;1.80;1.80;;;;;27.50;96384.00;;;;8311541;28;20209;-77
2023/06/05 16:56:45;;;;;;;5.47;2.10;;;;;27.60;96392.00;;;;8313654;28;20684;-77
2023/06/05 17:00:51;;;;;;;2.05;1.90;;;;;27.50;96386.00;;;;8307741;28;20288;-76
2023/06/05 17:04:56;;;;;;;2.05;1.95;;;;;27.30;96386.00;;;;8297190;28;20363;-79
2023/06/05 17:09:00;;;;;;;2.50;2.30;;;;;27.20;96391.00;;;;8317820;28;20209;-75
2023/06/05 17:13:04;;;;;;;2.13;2.03;;;;;27.20;96388.00;;;;8303748;28;20783;-76
2023/06/05 17:17:07;;;;;;;2.13;1.92;;;;;27.10;96387.00;;;;8306545;28;20301;-77
2023/06/05 17:21:18;;;;;;;2.08;1.98;;;;;27.00;96384.00;;;;8288910;28;20199;-78
2023/06/05 17:25:24;;;;;;;2.00;1.90;;;;;27.00;96394.00;;;;8303368;28;20228;-77
2023/06/05 17:29:28;;;;;;;3.08;2.15;;;;;26.70;96394.00;;;;8309517;28;20232;-77
2023/06/05 17:33:32;;;;;;;1.73;1.70;;;;;26.60;96392.00;;;;8308965;28;20229;-71
2023/06/05 17:37:36;;;;;;;2.25;2.05;;;;;26.60;96391.00;;;;8307214;28;20365;-80
2023/06/05 17:41:39;;;;;;;1.90;1.80;;;;;26.70;96389.00;;;;8301015;28;20214;-72
2023/06/05 17:45:45;;;;;;;1.85;1.75;;;;;26.10;96392.00;;;;8309327;28;20268;-77
2023/06/05 17:49:50;;;;;;;2.25;2.05;;;;;25.20;96390.00;;;;8306042;28;20673;-74
2023/06/05 17:53:55;;;;;;;1.90;1.80;;;;;24.60;96397.00;;;;8304640;28;20567;-75
2023/06/05 17:58:00;;;;;;;1.92;1.83;;;;;23.90;96395.00;;;;8302014;28;20210;-73
2023/06/05 18:02:08;;;;;;;2.28;1.98;;;;;23.20;96389.00;;;;8303720;28;20284;-74
2023/06/05 18:06:11;;;;;;;1.95;1.85;;;;;22.70;96397.00;;;;8302879;28;20234;-74
2023/06/05 18:10:23;;;;;;;2.10;2.00;;;;;22.20;96400.00;;;;8302340;28;20749;-74
2023/06/05 18:14:36;;;;;;;2.30;2.20;;;;;21.80;96401.00;;;;8307985;28;20210;-73
2023/06/05 18:18:39;;;;;;;2.53;2.13;;;;;21.40;96409.00;;;;8301700;28;20206;-73
2023/06/05 18:22:45;;;;;;;2.42;2.22;;;;;21.00;96418.00;;;;8306458;28;20197;-73
2023/06/05 18:26:51;;;;;;;2.40;2.30;;;;;20.80;96417.00;;;;8300479;28;20724;-71
2023/06/05 18:30:57;;;;;;;2.15;2.03;;;;;20.40;96407.00;;;;8316133;28;20201;-74
2023/06/05 18:35:02;;;;;;;2.72;2.30;;;;;20.10;96424.00;;;;8317808;28;20259;-77
2023/06/05 18:39:08;;;;;;;2.38;2.17;;;;;20.00;96425.00;;;;8309504;28;20236;-75
2023/06/05 18:43:12;;;;;;;2.55;2.35;;;;;19.80;96427.00;;;;8316881;28;20297;-74
2023/06/05 18:47:16;;;;;;;2.08;1.98;;;;;19.60;96429.00;;;;8308770;28;20221;-78
2023/06/05 18:51:21;;;;;;;2.60;2.40;;;;;19.40;96417.00;;;;8312913;28;20204;-76
2023/06/05 18:55:28;;;;;;;2.63;2.42;;;;;19.20;96417.00;;;;8313592;28;20283;-72
2023/06/05 18:59:34;;;;;;;3.47;2.22;;;;;19.00;96409.00;;;;8301809;28;20236;-68
2023/06/05 19:03:54;;;;;;;2.80;2.60;;;;;18.80;96406.00;;;;8307968;28;20232;-73
2023/06/05 19:08:16;;;;;;;3.00;2.40;;;;;18.60;96422.00;;;;8319017;28;20229;-73
2023/06/05 19:12:24;;;;;;;2.67;2.50;;;;;18.30;96418.00;;;;8317446;28;20551;-75
2023/06/05 19:16:34;;;;;;;3.30;2.67;;;;;18.20;96419.00;;;;8308276;28;20289;-71
2023/06/05 19:20:41;;;;;;;2.80;2.60;;;;;18.00;96411.00;;;;8314920;28;20208;-69
2023/06/05 19:24:45;;;;;;;2.90;2.70;;;;;17.80;96415.00;;;;8311956;28;20722;-70
2023/06/05 19:28:49;;;;;;;4.10;2.60;;;;;17.60;96421.00;;;;8302389;28;20232;-71
2023/06/05 19:32:56;;;;;;;3.67;2.80;;;;;17.50;96424.00;;;;8315823;28;20277;-70
2023/06/05 19:37:00;;;;;;;2.70;2.50;;;;;17.30;96418.00;;;;8317993;28;20485;-71
2023/06/05 19:41:05;;;;;;;3.30;2.92;;;;;17.20;96417.00;;;;8316917;28;20968;-71
2023/06/05 19:45:12;;;;;;;2.58;2.38;;;;;17.00;96416.00;;;;8315914;28;20229;-70
2023/06/05 19:49:21;;;;;;;3.53;2.70;;;;;16.90;96416.00;;;;8312216;28;20224;-69
2023/06/05 19:53:26;;;;;;;3.03;2.83;;;;;16.80;96417.00;;;;8312938;28;20846;-69
2023/06/05 19:57:37;;;;;;;3.10;2.80;;;;;16.60;96423.00;;;;8316141;28;20201;-69
2023/06/05 20:01:48;;;;;;;5.40;2.83;;;;;16.50;96420.00;;;;8314324;28;20731;-69
2023/06/05 20:06:02;;;;;;;4.65;3.03;;;;;16.40;96415.00;;;;8315684;28;20231;-69
2023/06/05 20:10:07;;;;;;;3.03;2.78;;;;;16.30;96413.00;;;;8302966;28;20206;-69
2023/06/05 20:14:12;;;;;;;3.75;3.20;;;;;16.20;96408.00;;;;8312185;28;20261;-68
2023/06/05 20:18:17;;;;;;;3.53;3.17;;;;;16.10;96405.00;;;;8284229;28;20605;-69
2023/06/05 20:22:22;;;;;;;6.00;3.67;;;;;16.00;96394.00;;;;8305653;28;20208;-69
2023/06/05 20:26:32;;;;;;;5.28;3.42;;;;;15.90;96403.00;;;;8307369;28;20336;-69
2023/06/05 20:30:38;;;;;;;3.90;3.33;;;;;15.90;96407.00;;;;8308297;28;20784;-70
2023/06/05 20:34:43;;;;;;;4.32;3.30;;;;;15.90;96405.00;;;;8311038;28;20230;-69
2023/06/05 20:38:50;;;;;;;4.18;3.35;;;;;15.80;96401.00;;;;8308895;28;20202;-70